Newent, United Kingdom
Current Conditions -  °F | °C
As of 6:47 AM on Sunday 21 Dec 2014 (Local Time) from EGVA Reporting Station
Light Rain Light Rain  
Wind Chill: 39°   Ceiling: 400
Heat Index: 45°   Visibility: 5mi
Dew Point: 43°   Wind: 10mph
Humidity: 93%   Direction: 230°SW
Pressure: 30.34"   Gusts: NA
Location:  51.93°N, 2.41°W
Report Text: EGVA 210647Z AUTO 23009KT 8000 -RA BR BKN004 OVC009 07/06 A3034 RMK AO2 UPB0606E0613RAB0613
Loading
Personal Weather Stations






























Interactive Weather Map New forecast layout! Learn more

10-Day Weather Forecast

Advertisements
Track Severe Weather on mobile